createdAt,value
2022-08-05T00:00:16.211Z,1007.20
2022-08-05T00:01:20.634Z,1007.24
2022-08-05T00:02:15.778Z,1007.28
2022-08-05T00:03:15.452Z,1007.31
2022-08-05T00:04:14.673Z,1007.34
2022-08-05T00:06:02.475Z,1007.32
2022-08-05T00:06:27.765Z,1007.33
2022-08-05T00:07:59.663Z,1007.27
2022-08-05T00:08:32.498Z,1007.25
2022-08-05T00:09:16.011Z,1007.23
2022-08-05T00:10:14.612Z,1007.21
2022-08-05T00:11:20.795Z,1007.19
2022-08-05T00:12:15.707Z,1007.09
2022-08-05T00:13:18.593Z,1007.01
2022-08-05T00:14:17.129Z,1006.96
2022-08-05T00:15:57.674Z,1006.90
2022-08-05T00:16:15.599Z,1006.96
2022-08-05T00:17:18.674Z,1006.99
2022-08-05T00:18:22.510Z,1007.05
2022-08-05T00:19:15.458Z,1007.08
2022-08-05T00:20:14.424Z,1007.07
2022-08-05T00:21:15.428Z,1007.09
2022-08-05T00:22:14.503Z,1007.06
2022-08-05T00:23:14.383Z,1007.05
2022-08-05T00:24:18.986Z,1007.01
2022-08-05T00:25:15.374Z,1007.03
2022-08-05T00:26:14.383Z,1007.00
2022-08-05T00:27:16.695Z,1007.01
2022-08-05T00:28:15.355Z,1007.05
2022-08-05T00:29:15.369Z,1007.10
2022-08-05T00:30:14.287Z,1007.13
2022-08-05T00:31:15.410Z,1007.15
2022-08-05T00:32:15.682Z,1007.19
2022-08-05T00:34:41.937Z,1007.22
2022-08-05T00:34:56.561Z,1007.32
2022-08-05T00:35:15.399Z,1007.35
2022-08-05T00:37:09.102Z,1007.45
2022-08-05T00:37:15.223Z,1007.54
2022-08-05T00:38:14.195Z,1007.60
2022-08-05T00:39:14.433Z,1007.64
2022-08-05T00:40:14.224Z,1007.61
2022-08-05T00:41:14.199Z,1007.64
2022-08-05T00:42:32.270Z,1007.63
2022-08-05T00:43:15.261Z,1007.64
2022-08-05T00:44:14.270Z,1007.65
2022-08-05T00:45:14.115Z,1007.69
2022-08-05T00:46:14.111Z,1007.68
2022-08-05T00:47:14.091Z,1007.70
2022-08-05T00:48:14.141Z,1007.69
2022-08-05T00:49:14.118Z,1007.64
2022-08-05T00:50:14.098Z,1007.64
2022-08-05T00:51:50.306Z,1007.59
2022-08-05T00:52:15.023Z,1007.59
2022-08-05T00:54:00.900Z,1007.59
2022-08-05T00:54:14.970Z,1007.62
2022-08-05T00:55:14.037Z,1007.63
2022-08-05T00:56:14.043Z,1007.74
2022-08-05T00:57:13.963Z,1007.83
2022-08-05T00:58:14.034Z,1007.92
2022-08-05T00:59:13.912Z,1007.96
2022-08-05T01:00:13.912Z,1007.98
2022-08-05T01:01:13.966Z,1007.97
2022-08-05T01:02:13.864Z,1008.00
2022-08-05T01:03:22.400Z,1008.01
2022-08-05T01:04:15.866Z,1007.98
2022-08-05T01:05:13.827Z,1007.99
2022-08-05T01:06:15.444Z,1008.03
2022-08-05T01:07:13.988Z,1008.00
2022-08-05T01:08:41.839Z,1008.01
2022-08-05T01:09:14.865Z,1008.05
2022-08-05T01:10:13.807Z,1008.05
2022-08-05T01:11:13.870Z,1008.06
2022-08-05T01:12:18.797Z,1008.04
2022-08-05T01:13:19.327Z,1008.05
2022-08-05T01:14:15.602Z,1008.03
2022-08-05T01:15:35.605Z,1008.03
2022-08-05T01:16:14.851Z,1008.04
2022-08-05T01:17:14.700Z,1008.10
2022-08-05T01:18:14.318Z,1008.18
2022-08-05T01:19:14.236Z,1008.12
2022-08-05T01:20:13.739Z,1008.12
2022-08-05T01:21:13.648Z,1008.12
2022-08-05T01:22:18.638Z,1008.11
2022-08-05T01:23:20.070Z,1008.10
2022-08-05T01:24:14.643Z,1008.10
2022-08-05T01:25:13.751Z,1008.05
2022-08-05T01:26:13.592Z,1008.02
2022-08-05T01:27:19.424Z,1007.98
2022-08-05T01:28:14.545Z,1007.94
2022-08-05T01:29:13.507Z,1007.94
2022-08-05T01:30:18.683Z,1007.95
2022-08-05T01:31:14.545Z,1007.96
2022-08-05T01:32:18.380Z,1007.94
2022-08-05T01:33:14.485Z,1007.92
2022-08-05T01:34:14.485Z,1007.82
2022-08-05T01:35:13.453Z,1007.70
2022-08-05T01:36:16.087Z,1007.66
2022-08-05T01:37:24.645Z,1007.63
2022-08-05T01:38:24.656Z,1007.56
2022-08-05T01:39:15.601Z,1007.50
2022-08-05T01:40:14.364Z,1007.51
2022-08-05T01:41:13.385Z,1007.54
2022-08-05T01:42:13.725Z,1007.52
2022-08-05T01:43:22.465Z,1007.48
2022-08-05T01:44:15.352Z,1007.52
2022-08-05T01:45:13.339Z,1007.57
2022-08-05T01:46:16.493Z,1007.62
2022-08-05T01:47:14.307Z,1007.67
2022-08-05T01:48:13.273Z,1007.70
2022-08-05T01:49:23.933Z,1007.71
2022-08-05T01:50:15.784Z,1007.71
2022-08-05T01:51:13.292Z,1007.70
2022-08-05T01:52:17.978Z,1007.69
2022-08-05T01:53:14.190Z,1007.66
2022-08-05T01:54:14.259Z,1007.63
2022-08-05T01:55:13.160Z,1007.63
2022-08-05T01:56:13.148Z,1007.59
2022-08-05T01:58:09.366Z,1007.57
2022-08-05T01:58:15.587Z,1007.57
2022-08-05T01:59:13.345Z,1007.56
2022-08-05T02:00:14.109Z,1007.55
2022-08-05T02:01:13.526Z,1007.57
2022-08-05T02:02:13.146Z,1007.62
2022-08-05T02:03:24.561Z,1007.62
2022-08-05T02:04:14.104Z,1007.60
2022-08-05T02:05:13.152Z,1007.60
2022-08-05T02:06:33.661Z,1007.67
2022-08-05T02:07:22.194Z,1007.67
2022-08-05T02:08:13.997Z,1007.68
2022-08-05T02:09:14.659Z,1007.71
2022-08-05T02:10:17.520Z,1007.71
2022-08-05T02:11:12.962Z,1007.74
2022-08-05T02:12:12.943Z,1007.71
2022-08-05T02:13:16.218Z,1007.76
2022-08-05T02:14:13.123Z,1007.74
2022-08-05T02:15:12.899Z,1007.77
2022-08-05T02:16:16.275Z,1007.76
2022-08-05T02:17:16.762Z,1007.76
2022-08-05T02:18:33.134Z,1007.77
2022-08-05T02:19:13.865Z,1007.76
2022-08-05T02:20:12.853Z,1007.76
2022-08-05T02:21:14.856Z,1007.78
2022-08-05T02:22:12.837Z,1007.77
2022-08-05T02:23:13.851Z,1007.73
2022-08-05T02:24:12.884Z,1007.73
2022-08-05T02:25:13.810Z,1007.75
2022-08-05T02:26:13.589Z,1007.73
2022-08-05T02:27:12.745Z,1007.69
2022-08-05T02:28:12.769Z,1007.68
2022-08-05T02:29:21.287Z,1007.69
2022-08-05T02:30:13.710Z,1007.66
2022-08-05T02:31:14.798Z,1007.62
2022-08-05T02:32:12.662Z,1007.60
2022-08-05T02:33:13.689Z,1007.63
2022-08-05T02:34:13.701Z,1007.61
2022-08-05T02:35:14.054Z,1007.59
2022-08-05T02:36:13.413Z,1007.60
2022-08-05T02:37:12.614Z,1007.65
2022-08-05T02:38:13.324Z,1007.63
2022-08-05T02:39:14.025Z,1007.60
2022-08-05T02:40:13.775Z,1007.61
2022-08-05T02:41:17.022Z,1007.62
2022-08-05T02:42:25.688Z,1007.62
2022-08-05T02:43:13.545Z,1007.64
2022-08-05T02:44:13.516Z,1007.64
2022-08-05T02:45:12.504Z,1007.68
2022-08-05T02:46:12.473Z,1007.67
2022-08-05T02:47:12.577Z,1007.71
2022-08-05T02:48:13.033Z,1007.77
2022-08-05T02:49:12.437Z,1007.79
2022-08-05T02:50:12.426Z,1007.85
2022-08-05T02:51:12.418Z,1007.91
2022-08-05T02:52:25.821Z,1007.88
2022-08-05T02:53:19.150Z,1007.84
2022-08-05T02:54:34.841Z,1007.81
2022-08-05T02:55:13.367Z,1007.77
2022-08-05T02:56:15.725Z,1007.77
2022-08-05T02:58:10.464Z,1007.80
2022-08-05T02:58:13.410Z,1007.83
2022-08-05T02:59:12.326Z,1007.86
2022-08-05T03:00:12.303Z,1007.86
2022-08-05T03:01:12.342Z,1007.90
2022-08-05T03:02:12.271Z,1007.93
2022-08-05T03:03:12.260Z,1007.92
2022-08-05T03:04:14.057Z,1007.89
2022-08-05T03:05:12.311Z,1007.88
2022-08-05T03:06:55.445Z,1007.85
2022-08-05T03:07:17.648Z,1007.84
2022-08-05T03:08:13.515Z,1007.79
2022-08-05T03:09:12.177Z,1007.78
2022-08-05T03:10:13.352Z,1007.72
2022-08-05T03:11:54.715Z,1007.64
2022-08-05T03:12:13.156Z,1007.57
2022-08-05T03:13:16.893Z,1007.51
2022-08-05T03:14:13.607Z,1007.43
2022-08-05T03:15:12.376Z,1007.37
2022-08-05T03:16:12.167Z,1007.37
2022-08-05T03:17:12.078Z,1007.37
2022-08-05T03:18:12.125Z,1007.37
2022-08-05T03:19:20.223Z,1007.34
2022-08-05T03:20:13.448Z,1007.37
2022-08-05T03:21:12.020Z,1007.47
2022-08-05T03:22:16.773Z,1007.58
2022-08-05T03:23:13.037Z,1007.78
2022-08-05T03:24:12.007Z,1007.98
2022-08-05T03:26:03.665Z,1008.13
2022-08-05T03:26:31.390Z,1008.22
2022-08-05T03:27:12.951Z,1008.24
2022-08-05T03:28:11.920Z,1008.18
2022-08-05T03:29:12.228Z,1008.12
2022-08-05T03:30:12.241Z,1008.07
2022-08-05T03:31:11.921Z,1008.03
2022-08-05T03:32:12.896Z,1008.08
2022-08-05T03:33:11.879Z,1008.11
2022-08-05T03:34:11.842Z,1008.13
2022-08-05T03:35:11.823Z,1007.95
2022-08-05T03:36:12.076Z,1007.80
2022-08-05T03:37:11.819Z,1007.62
2022-08-05T03:38:11.839Z,1007.58
2022-08-05T03:39:12.928Z,1007.47
2022-08-05T03:40:12.909Z,1007.42
2022-08-05T03:41:12.085Z,1007.39
2022-08-05T03:42:12.580Z,1007.43
2022-08-05T03:43:58.541Z,1007.47
2022-08-05T03:44:12.759Z,1007.40
2022-08-05T03:45:22.460Z,1007.37
2022-08-05T03:46:12.680Z,1007.34
2022-08-05T03:47:13.636Z,1007.33
2022-08-05T03:48:11.646Z,1007.36
2022-08-05T03:49:11.703Z,1007.34
2022-08-05T03:50:11.730Z,1007.35
2022-08-05T03:52:48.835Z,1007.44
2022-08-05T03:52:49.384Z,1007.55
2022-08-05T03:55:33.969Z,1007.53
2022-08-05T03:55:54.209Z,1007.59
2022-08-05T03:56:04.209Z,1007.44
2022-08-05T03:56:18.034Z,1007.46
2022-08-05T03:57:34.276Z,1007.50
2022-08-05T03:58:12.519Z,1007.56
2022-08-05T03:59:11.562Z,1007.51
2022-08-05T04:00:11.498Z,1007.47
2022-08-05T04:01:13.374Z,1007.39
2022-08-05T04:02:14.906Z,1007.32
2022-08-05T04:03:26.617Z,1007.24
2022-08-05T04:04:12.509Z,1007.21
2022-08-05T04:05:11.433Z,1007.19
2022-08-05T04:06:11.473Z,1007.29
2022-08-05T04:07:11.693Z,1007.37
2022-08-05T04:08:14.490Z,1007.36
2022-08-05T04:09:12.380Z,1007.43
2022-08-05T04:10:11.372Z,1007.43
2022-08-05T04:11:12.376Z,1007.43
2022-08-05T04:12:23.746Z,1007.46
2022-08-05T04:13:12.346Z,1007.47
2022-08-05T04:14:11.313Z,1007.45
2022-08-05T04:15:15.542Z,1007.45
2022-08-05T04:16:11.314Z,1007.60
2022-08-05T04:17:11.415Z,1007.71
2022-08-05T04:18:22.467Z,1007.77
2022-08-05T04:19:12.276Z,1007.68
2022-08-05T04:20:11.223Z,1007.60
2022-08-05T04:21:11.292Z,1007.69
2022-08-05T04:22:12.327Z,1007.86
2022-08-05T04:23:12.654Z,1007.89
2022-08-05T04:24:18.678Z,1007.89
2022-08-05T04:25:12.205Z,1007.88
2022-08-05T04:26:11.198Z,1007.80
2022-08-05T04:27:11.235Z,1007.74
2022-08-05T04:28:12.926Z,1007.72
2022-08-05T04:29:11.109Z,1007.75
2022-08-05T04:30:11.123Z,1007.75
2022-08-05T04:31:11.169Z,1007.72
2022-08-05T04:32:11.082Z,1007.65
2022-08-05T04:33:11.059Z,1007.55
2022-08-05T04:34:31.205Z,1007.43
2022-08-05T04:35:17.624Z,1007.34
2022-08-05T04:36:16.716Z,1007.35
2022-08-05T04:37:12.760Z,1007.39
2022-08-05T04:38:11.081Z,1007.42
2022-08-05T04:39:10.993Z,1007.41
2022-08-05T04:40:11.030Z,1007.37
2022-08-05T04:41:10.936Z,1007.41
2022-08-05T04:42:11.233Z,1007.42
2022-08-05T04:43:16.359Z,1007.45
2022-08-05T04:44:11.903Z,1007.42
2022-08-05T04:45:10.882Z,1007.44
2022-08-05T04:46:11.912Z,1007.47
2022-08-05T04:47:12.061Z,1007.45
2022-08-05T04:48:16.586Z,1007.40
2022-08-05T04:49:14.373Z,1007.32
2022-08-05T04:50:11.597Z,1007.27
2022-08-05T04:51:11.109Z,1007.28
2022-08-05T04:52:10.818Z,1007.34
2022-08-05T04:53:10.805Z,1007.46
2022-08-05T04:54:12.106Z,1007.56
2022-08-05T04:55:15.014Z,1007.63
2022-08-05T04:56:32.275Z,1007.64
2022-08-05T04:57:11.756Z,1007.68
2022-08-05T04:58:12.324Z,1007.69
2022-08-05T04:59:21.964Z,1007.70
2022-08-05T05:00:11.842Z,1007.66
2022-08-05T05:01:10.759Z,1007.62
2022-08-05T05:02:41.563Z,1007.61
2022-08-05T05:03:12.929Z,1007.66
2022-08-05T05:04:11.731Z,1007.66
2022-08-05T05:05:26.309Z,1007.68
2022-08-05T05:06:38.840Z,1007.67
2022-08-05T05:07:11.606Z,1007.61
2022-08-05T05:08:14.423Z,1007.63
2022-08-05T05:09:14.260Z,1007.49
2022-08-05T05:10:11.583Z,1007.50
2022-08-05T05:11:10.582Z,1007.46
2022-08-05T05:12:10.533Z,1007.50
2022-08-05T05:13:10.523Z,1007.56
2022-08-05T05:14:10.603Z,1007.56
2022-08-05T05:15:11.491Z,1007.52
2022-08-05T05:16:11.462Z,1007.53
2022-08-05T05:17:10.450Z,1007.46
2022-08-05T05:18:10.463Z,1007.45
2022-08-05T05:19:19.433Z,1007.36
2022-08-05T05:20:11.415Z,1007.38
2022-08-05T05:21:10.405Z,1007.39
2022-08-05T05:22:24.282Z,1007.40
2022-08-05T05:23:19.811Z,1007.46
2022-08-05T05:24:11.464Z,1007.47
2022-08-05T05:25:16.980Z,1007.49
2022-08-05T05:26:11.378Z,1007.53
2022-08-05T05:27:10.315Z,1007.47
2022-08-05T05:28:10.321Z,1007.44
2022-08-05T05:29:14.915Z,1007.53
2022-08-05T05:30:15.560Z,1007.54
2022-08-05T05:31:11.289Z,1007.59
2022-08-05T05:32:12.672Z,1007.69
2022-08-05T05:33:17.087Z,1007.71
2022-08-05T05:34:11.330Z,1007.76
2022-08-05T05:35:10.207Z,1007.78
2022-08-05T05:36:11.277Z,1007.87
2022-08-05T05:37:10.204Z,1007.90
2022-08-05T05:38:13.829Z,1007.94
2022-08-05T05:39:11.053Z,1007.98
2022-08-05T05:40:10.153Z,1007.98
2022-08-05T05:41:10.152Z,1007.99
2022-08-05T05:42:10.131Z,1007.95
2022-08-05T05:43:10.199Z,1007.91
2022-08-05T05:44:35.817Z,1007.87
2022-08-05T05:45:11.122Z,1007.85
2022-08-05T05:46:17.675Z,1007.80
2022-08-05T05:47:21.310Z,1007.81
2022-08-05T05:48:11.120Z,1007.81
2022-08-05T05:49:13.546Z,1007.88
2022-08-05T05:50:11.054Z,1007.93
2022-08-05T05:51:15.518Z,1007.96
2022-08-05T05:52:20.203Z,1007.97
2022-08-05T05:53:21.903Z,1007.93
2022-08-05T05:54:11.554Z,1007.97
2022-08-05T05:55:13.566Z,1007.97
2022-08-05T05:56:09.926Z,1007.97
2022-08-05T05:57:13.601Z,1007.94
2022-08-05T05:58:10.946Z,1007.99
2022-08-05T05:59:09.967Z,1008.01
2022-08-05T06:00:10.194Z,1008.04
2022-08-05T06:01:12.850Z,1008.03
2022-08-05T06:02:11.117Z,1008.02
2022-08-05T06:03:39.994Z,1008.07
2022-08-05T06:04:11.821Z,1008.09
2022-08-05T06:05:10.444Z,1008.10
2022-08-05T06:06:10.811Z,1008.07
2022-08-05T06:07:15.148Z,1008.12
2022-08-05T06:08:10.774Z,1008.13
2022-08-05T06:09:16.779Z,1008.14
2022-08-05T06:10:10.771Z,1008.13
2022-08-05T06:11:09.761Z,1008.09
2022-08-05T06:12:09.839Z,1008.01
2022-08-05T06:13:09.730Z,1008.00
2022-08-05T06:14:09.807Z,1007.99
2022-08-05T06:15:13.547Z,1007.94
2022-08-05T06:16:29.706Z,1008.04
2022-08-05T06:17:22.372Z,1008.08
2022-08-05T06:18:10.645Z,1008.13
2022-08-05T06:19:09.651Z,1008.13
2022-08-05T06:20:18.715Z,1008.18
2022-08-05T06:21:16.542Z,1008.20
2022-08-05T06:22:10.585Z,1008.23
2022-08-05T06:23:09.593Z,1008.25
2022-08-05T06:24:11.535Z,1008.20
2022-08-05T06:25:24.598Z,1008.21
2022-08-05T06:26:13.646Z,1008.24
2022-08-05T06:27:17.333Z,1008.23
2022-08-05T06:28:21.198Z,1008.23
2022-08-05T06:29:42.965Z,1008.25
2022-08-05T06:30:18.157Z,1008.25
2022-08-05T06:31:11.253Z,1008.22
2022-08-05T06:32:25.565Z,1008.26
2022-08-05T06:33:10.750Z,1008.27
2022-08-05T06:34:09.456Z,1008.25
2022-08-05T06:35:15.448Z,1008.25
2022-08-05T06:36:10.488Z,1008.27
2022-08-05T06:37:09.437Z,1008.28
2022-08-05T06:38:11.864Z,1008.34
2022-08-05T06:39:09.494Z,1008.39
2022-08-05T06:40:09.446Z,1008.39
2022-08-05T06:41:09.419Z,1008.49
2022-08-05T06:42:09.393Z,1008.52
2022-08-05T06:43:57.781Z,1008.58
2022-08-05T06:44:10.346Z,1008.65
2022-08-05T06:45:09.590Z,1008.71
2022-08-05T06:46:10.345Z,1008.80
2022-08-05T06:47:10.173Z,1008.89
2022-08-05T06:48:36.080Z,1009.01
2022-08-05T06:49:10.236Z,1009.17
2022-08-05T06:50:09.265Z,1009.27
2022-08-05T06:51:21.786Z,1009.34
2022-08-05T06:52:37.946Z,1009.48
2022-08-05T06:53:19.553Z,1009.49
2022-08-05T06:54:10.185Z,1009.57
2022-08-05T06:55:10.263Z,1009.55
2022-08-05T06:56:11.663Z,1009.54
2022-08-05T06:57:56.649Z,1009.55
2022-08-05T06:58:30.085Z,1009.48
2022-08-05T06:59:11.903Z,1009.53
2022-08-05T07:00:09.708Z,1009.51
2022-08-05T07:01:09.177Z,1009.52
2022-08-05T07:02:09.079Z,1009.47
2022-08-05T07:03:09.759Z,1009.50
2022-08-05T07:04:09.049Z,1009.50
2022-08-05T07:05:14.327Z,1009.49
2022-08-05T07:06:15.121Z,1009.47
2022-08-05T07:07:09.017Z,1009.45
2022-08-05T07:08:10.872Z,1009.43
2022-08-05T07:09:09.017Z,1009.35
2022-08-05T07:10:09.034Z,1009.34
2022-08-05T07:11:15.224Z,1009.34
2022-08-05T07:12:09.920Z,1009.31
2022-08-05T07:13:08.915Z,1009.22
2022-08-05T07:14:20.669Z,1009.13
2022-08-05T07:15:09.950Z,1009.10
2022-08-05T07:16:08.910Z,1009.09
2022-08-05T07:18:08.755Z,1009.03
2022-08-05T07:18:12.492Z,1008.98
2022-08-05T07:19:10.901Z,1008.92
2022-08-05T07:21:09.877Z,1008.81
2022-08-05T07:22:08.870Z,1008.73
2022-08-05T07:23:08.785Z,1008.59
2022-08-05T07:24:11.171Z,1008.50
2022-08-05T07:25:23.621Z,1008.42
2022-08-05T07:26:10.455Z,1008.36
2022-08-05T07:27:09.044Z,1008.32
2022-08-05T07:28:11.778Z,1008.27
2022-08-05T07:29:08.706Z,1008.27
2022-08-05T07:30:24.186Z,1008.28
2022-08-05T07:31:09.694Z,1008.28
2022-08-05T07:32:08.709Z,1008.26
2022-08-05T07:33:09.206Z,1008.22
2022-08-05T07:34:08.659Z,1008.22
2022-08-05T07:36:03.941Z,1008.24
2022-08-05T07:36:21.182Z,1008.22
2022-08-05T07:37:11.584Z,1008.22
2022-08-05T07:38:12.261Z,1008.13
2022-08-05T07:39:08.584Z,1008.13
2022-08-05T07:40:27.051Z,1008.10
2022-08-05T07:41:34.958Z,1008.04
2022-08-05T07:42:15.255Z,1008.01
2022-08-05T07:43:20.190Z,1007.98
2022-08-05T07:44:14.513Z,1008.00
2022-08-05T07:45:09.694Z,1007.98
2022-08-05T07:46:24.398Z,1007.97
2022-08-05T07:47:10.133Z,1007.91
2022-08-05T07:48:08.531Z,1007.88
2022-08-05T07:49:08.482Z,1007.88
2022-08-05T07:50:08.475Z,1007.90
2022-08-05T07:51:23.058Z,1007.95
2022-08-05T07:52:09.726Z,1007.96
2022-08-05T07:53:08.400Z,1007.92
2022-08-05T07:54:10.137Z,1007.85
2022-08-05T07:55:15.796Z,1007.89
2022-08-05T07:56:39.331Z,1007.90
2022-08-05T07:57:22.860Z,1007.87
2022-08-05T07:58:09.753Z,1007.84
2022-08-05T07:59:09.434Z,1007.76
2022-08-05T08:00:11.457Z,1007.77
2022-08-05T08:01:08.307Z,1007.82
2022-08-05T08:02:16.267Z,1007.86
2022-08-05T08:03:14.807Z,1007.92
2022-08-05T08:04:09.300Z,1007.98
2022-08-05T08:05:08.265Z,1007.96
2022-08-05T08:06:08.271Z,1007.94
2022-08-05T08:07:08.235Z,1007.90
2022-08-05T08:08:12.291Z,1007.94
2022-08-05T08:09:08.188Z,1007.91
2022-08-05T08:10:08.217Z,1007.86
2022-08-05T08:11:08.857Z,1007.83
2022-08-05T08:12:30.543Z,1007.88
2022-08-05T08:13:09.132Z,1007.80
2022-08-05T08:14:08.154Z,1007.91
2022-08-05T08:15:13.839Z,1007.94
2022-08-05T08:16:34.928Z,1007.99
2022-08-05T08:17:09.174Z,1008.03
2022-08-05T08:18:14.269Z,1008.03
2022-08-05T08:19:09.099Z,1008.16
2022-08-05T08:20:22.414Z,1008.17
2022-08-05T08:21:09.756Z,1008.20
2022-08-05T08:22:09.192Z,1008.26
2022-08-05T08:24:00.436Z,1008.28
2022-08-05T08:24:13.983Z,1008.33
2022-08-05T08:25:15.663Z,1008.34
2022-08-05T08:26:08.959Z,1008.35
2022-08-05T08:27:09.898Z,1008.27
2022-08-05T08:28:18.520Z,1008.28
2022-08-05T08:29:45.155Z,1008.26
2022-08-05T08:30:29.522Z,1008.21
2022-08-05T08:31:09.001Z,1008.19
2022-08-05T08:32:07.882Z,1008.21
2022-08-05T08:33:13.738Z,1008.14
2022-08-05T08:34:07.861Z,1008.11
2022-08-05T08:35:07.868Z,1008.11
2022-08-05T08:37:08.829Z,1008.15
2022-08-05T08:38:07.903Z,1008.19
2022-08-05T08:39:15.598Z,1008.18
2022-08-05T08:40:08.798Z,1008.27
2022-08-05T08:41:07.823Z,1008.26
2022-08-05T08:42:22.489Z,1008.29
2022-08-05T08:45:01.571Z,1008.28
2022-08-05T08:45:23.521Z,1008.33
2022-08-05T08:45:24.265Z,1008.32
2022-08-05T08:46:09.805Z,1008.34
2022-08-05T08:47:22.295Z,1008.40
2022-08-05T08:48:22.264Z,1008.33
2022-08-05T08:50:23.139Z,1008.35
2022-08-05T08:50:31.618Z,1008.33
2022-08-05T08:52:02.400Z,1008.34
2022-08-05T08:52:13.735Z,1008.35
2022-08-05T08:53:12.381Z,1008.37
2022-08-05T08:54:07.598Z,1008.41
2022-08-05T08:55:13.198Z,1008.36
2022-08-05T08:56:08.581Z,1008.43
2022-08-05T08:57:11.420Z,1008.42
2022-08-05T08:58:07.538Z,1008.45
2022-08-05T08:59:17.485Z,1008.45
2022-08-05T09:00:08.521Z,1008.47
2022-08-05T09:01:07.628Z,1008.48
2022-08-05T09:02:08.618Z,1008.54
2022-08-05T09:03:07.475Z,1008.58
2022-08-05T09:04:07.571Z,1008.57
2022-08-05T09:05:17.766Z,1008.56
2022-08-05T09:06:11.082Z,1008.60
2022-08-05T09:07:10.661Z,1008.63
2022-08-05T09:08:09.823Z,1008.69
2022-08-05T09:09:07.519Z,1008.80
2022-08-05T09:10:07.482Z,1008.88
2022-08-05T09:11:07.513Z,1008.91
2022-08-05T09:12:20.192Z,1008.92
2022-08-05T09:13:08.430Z,1008.94
2022-08-05T09:14:54.111Z,1008.91
2022-08-05T09:15:08.320Z,1008.89
2022-08-05T09:16:07.381Z,1008.87
2022-08-05T09:17:09.455Z,1008.91
2022-08-05T09:18:08.659Z,1008.86
2022-08-05T09:19:07.303Z,1008.84
2022-08-05T09:20:08.427Z,1008.82
2022-08-05T09:21:11.544Z,1008.78
2022-08-05T09:22:18.387Z,1008.81
2022-08-05T09:23:09.597Z,1008.75
2022-08-05T09:24:07.223Z,1008.69
2022-08-05T09:25:14.091Z,1008.74
2022-08-05T09:26:09.420Z,1008.72
2022-08-05T09:27:07.178Z,1008.73
2022-08-05T09:28:07.367Z,1008.78
2022-08-05T09:29:08.874Z,1008.78
2022-08-05T09:30:07.247Z,1008.80
2022-08-05T09:31:43.846Z,1008.82
2022-08-05T09:32:41.353Z,1008.77
2022-08-05T09:33:08.130Z,1008.80
2022-08-05T09:34:09.759Z,1008.84
2022-08-05T09:35:07.088Z,1008.86
2022-08-05T09:36:11.799Z,1008.87
2022-08-05T09:37:15.176Z,1008.96
2022-08-05T09:38:12.210Z,1009.00
2022-08-05T09:39:18.108Z,1008.97
2022-08-05T09:40:08.049Z,1009.02
2022-08-05T09:41:06.992Z,1009.08
2022-08-05T09:42:06.980Z,1009.06
2022-08-05T09:43:08.492Z,1009.06
2022-08-05T09:44:06.925Z,1009.04
2022-08-05T09:45:17.597Z,1009.01
2022-08-05T09:46:08.793Z,1009.03
2022-08-05T09:47:12.406Z,1009.01
2022-08-05T09:48:08.102Z,1009.02
2022-08-05T09:49:19.094Z,1009.04
2022-08-05T09:50:08.313Z,1009.04
2022-08-05T09:51:15.107Z,1009.04
2022-08-05T09:52:07.972Z,1009.10
2022-08-05T09:53:06.825Z,1009.07
2022-08-05T09:54:06.881Z,1009.07
2022-08-05T09:55:57.944Z,1009.14
2022-08-05T09:56:12.851Z,1009.10
2022-08-05T09:57:20.584Z,1009.14
2022-08-05T09:58:07.777Z,1009.13
2022-08-05T09:59:06.727Z,1009.11
2022-08-05T10:00:08.251Z,1009.12
2022-08-05T10:01:13.324Z,1009.12
2022-08-05T10:02:07.740Z,1009.09
2022-08-05T10:03:06.727Z,1009.11
2022-08-05T10:04:10.303Z,1009.15
2022-08-05T10:05:07.972Z,1009.12
2022-08-05T10:06:14.761Z,1009.17
2022-08-05T10:07:19.840Z,1009.13
2022-08-05T10:08:10.756Z,1009.11
2022-08-05T10:09:07.751Z,1009.09
2022-08-05T10:10:14.913Z,1009.13
2022-08-05T10:11:07.610Z,1009.15
2022-08-05T10:12:07.618Z,1009.13
2022-08-05T10:13:09.832Z,1009.17
2022-08-05T10:14:06.562Z,1009.18
2022-08-05T10:15:06.574Z,1009.17
2022-08-05T10:16:06.567Z,1009.21
2022-08-05T10:17:07.281Z,1009.25
2022-08-05T10:18:07.640Z,1009.19
2022-08-05T10:19:08.451Z,1009.27
2022-08-05T10:20:10.990Z,1009.20
2022-08-05T10:21:11.899Z,1009.19
2022-08-05T10:22:07.501Z,1009.18
2022-08-05T10:23:08.902Z,1009.20
2022-08-05T10:24:10.995Z,1009.19
2022-08-05T10:25:06.468Z,1009.22
2022-08-05T10:26:07.062Z,1009.25
2022-08-05T10:27:07.567Z,1009.24
2022-08-05T10:28:13.422Z,1009.22
2022-08-05T10:29:08.178Z,1009.29
2022-08-05T10:31:20.880Z,1009.27
2022-08-05T10:32:53.221Z,1009.28
2022-08-05T10:32:55.080Z,1009.24
2022-08-05T10:33:09.437Z,1009.26
2022-08-05T10:34:08.078Z,1009.27
2022-08-05T10:35:06.339Z,1009.35
2022-08-05T10:36:06.239Z,1009.32
2022-08-05T10:37:06.312Z,1009.35
2022-08-05T10:38:08.471Z,1009.32
2022-08-05T10:39:11.776Z,1009.35
2022-08-05T10:40:18.382Z,1009.38
2022-08-05T10:41:07.219Z,1009.40
2022-08-05T10:42:07.725Z,1009.45
2022-08-05T10:43:06.383Z,1009.45
2022-08-05T10:44:06.263Z,1009.47
2022-08-05T10:45:21.399Z,1009.46
2022-08-05T10:46:07.273Z,1009.48
2022-08-05T10:47:06.121Z,1009.48
2022-08-05T10:48:30.159Z,1009.45
2022-08-05T10:49:10.141Z,1009.43
2022-08-05T10:50:20.568Z,1009.40
2022-08-05T10:51:22.164Z,1009.40
2022-08-05T10:52:10.318Z,1009.42
2022-08-05T10:53:06.039Z,1009.41
2022-08-05T10:54:28.282Z,1009.44
2022-08-05T10:55:07.188Z,1009.42
2022-08-05T10:56:21.103Z,1009.43
2022-08-05T10:57:06.977Z,1009.41
2022-08-05T10:58:06.008Z,1009.39
2022-08-05T10:59:12.142Z,1009.41
2022-08-05T11:00:09.114Z,1009.40
2022-08-05T11:01:06.911Z,1009.38
2022-08-05T11:02:05.974Z,1009.36
2022-08-05T11:03:22.780Z,1009.33
2022-08-05T11:04:06.924Z,1009.34
2022-08-05T11:05:05.863Z,1009.35
2022-08-05T11:06:05.862Z,1009.33
2022-08-05T11:07:06.403Z,1009.34
2022-08-05T11:08:33.786Z,1009.37
2022-08-05T11:09:06.800Z,1009.40
2022-08-05T11:10:10.289Z,1009.35
2022-08-05T11:11:14.598Z,1009.35
2022-08-05T11:12:06.933Z,1009.38
2022-08-05T11:13:05.827Z,1009.41
2022-08-05T11:14:05.738Z,1009.47
2022-08-05T11:15:19.489Z,1009.44
2022-08-05T11:16:06.766Z,1009.40
2022-08-05T11:17:57.696Z,1009.34
2022-08-05T11:18:06.772Z,1009.32
2022-08-05T11:20:10.369Z,1009.37
2022-08-05T11:20:10.613Z,1009.35
2022-08-05T11:21:11.576Z,1009.38
2022-08-05T11:22:06.689Z,1009.48
2022-08-05T11:23:06.154Z,1009.41
2022-08-05T11:24:30.119Z,1009.42
2022-08-05T11:26:03.200Z,1009.36
2022-08-05T11:26:08.826Z,1009.36
2022-08-05T11:27:05.588Z,1009.41
2022-08-05T11:28:05.573Z,1009.46
2022-08-05T11:29:13.069Z,1009.56
2022-08-05T11:30:06.557Z,1009.71
2022-08-05T11:31:06.514Z,1009.75
2022-08-05T11:32:05.762Z,1009.81
2022-08-05T11:33:06.637Z,1009.91
2022-08-05T11:34:08.136Z,1009.97
2022-08-05T11:35:05.482Z,1010.02
2022-08-05T11:36:08.635Z,1010.05
2022-08-05T11:37:06.135Z,1010.10
2022-08-05T11:38:30.136Z,1010.08
2022-08-05T11:39:06.487Z,1010.01
2022-08-05T11:40:05.433Z,1010.07
2022-08-05T11:41:34.293Z,1010.07
2022-08-05T11:42:06.472Z,1010.13
2022-08-05T11:43:05.353Z,1010.13
2022-08-05T11:44:08.131Z,1010.14
2022-08-05T11:45:14.606Z,1010.08
2022-08-05T11:46:15.107Z,1010.04
2022-08-05T11:47:14.253Z,1010.08
2022-08-05T11:48:06.321Z,1010.08
2022-08-05T11:49:06.274Z,1010.12
2022-08-05T11:50:05.277Z,1010.16
2022-08-05T11:51:06.271Z,1010.12
2022-08-05T11:52:08.794Z,1010.28
2022-08-05T11:53:06.267Z,1010.24
2022-08-05T11:54:05.281Z,1010.30
2022-08-05T11:55:07.032Z,1010.29
2022-08-05T11:56:05.228Z,1010.26
2022-08-05T11:57:08.418Z,1010.28
2022-08-05T11:58:09.265Z,1010.28
2022-08-05T11:59:13.719Z,1010.38
2022-08-05T12:00:06.210Z,1010.34
2022-08-05T12:01:08.516Z,1010.37
2022-08-05T12:02:06.130Z,1010.41
2022-08-05T12:03:06.153Z,1010.41
2022-08-05T12:04:05.103Z,1010.39
2022-08-05T12:05:06.871Z,1010.37
2022-08-05T12:06:05.774Z,1010.36
2022-08-05T12:07:06.041Z,1010.34